Time;durP1;ratioP1;P1;durP2;ratioP2;P2;SDS_P1;SDS_P2;PMS_P1;PMS_P2;Temp;Humidity;BMP_temperature;BMP_pressure;BME280_temperature;BME280_humidity;BME280_pressure;Samples;Min_cycle;Max_cycle;Signal;HPM_P1;HPM_P2
2022/01/30 00:04:35;;;;;;;31.43;15.80;;;3.20;99.90;;;;;;10289857;28;20498;-84
2022/01/30 00:09:36;;;;;;;31.70;16.77;;;3.20;99.90;;;;;;10289093;28;20061;-85
2022/01/30 00:14:38;;;;;;;28.10;13.67;;;3.20;99.90;;;;;;10271548;28;20038;-84
2022/01/30 00:19:45;;;;;;;29.47;14.83;;;3.20;99.90;;;;;;10271550;28;20496;-84
2022/01/30 00:29:51;;;;;;;30.50;15.47;;;3.20;99.90;;;;;;10288688;28;20552;-85
2022/01/30 00:34:52;;;;;;;40.20;19.27;;;3.20;99.90;;;;;;10288265;28;20034;-84
2022/01/30 00:39:52;;;;;;;31.73;16.00;;;3.20;99.90;;;;;;10287606;28;20043;-85
2022/01/30 00:44:53;;;;;;;44.27;20.67;;;3.20;99.90;;;;;;10287838;28;20449;-84
2022/01/30 00:49:53;;;;;;;36.40;16.40;;;3.20;99.90;;;;;;10288286;28;20037;-83
2022/01/30 00:54:54;;;;;;;31.50;14.67;;;3.30;99.90;;;;;;10288534;28;20066;-86
2022/01/30 00:59:55;;;;;;;37.47;18.50;;;3.30;99.90;;;;;;10286955;28;20086;-88
2022/01/30 01:04:56;;;;;;;36.03;19.10;;;3.30;99.90;;;;;;10287804;28;20479;-84
2022/01/30 01:25:53;;;;;;;22.93;13.83;;;3.30;99.90;;;;;;10287671;28;20398;-83
2022/01/30 01:30:54;;;;;;;28.93;14.87;;;3.40;99.90;;;;;;10287156;28;20094;-83
2022/01/30 01:35:55;;;;;;;13.40;6.90;;;3.50;99.90;;;;;;10285658;28;20106;-85
2022/01/30 01:40:56;;;;;;;10.13;6.27;;;3.60;99.90;;;;;;10286636;28;20743;-84
2022/01/30 01:45:58;;;;;;;14.27;3.77;;;3.70;99.90;;;;;;10287035;28;20038;-84
2022/01/30 01:51:13;;;;;;;9.23;2.77;;;3.60;99.90;;;;;;10286152;28;20035;-87
2022/01/30 01:56:15;;;;;;;15.77;4.30;;;3.60;99.90;;;;;;10285945;28;20042;-86
2022/01/30 02:01:16;;;;;;;11.90;4.07;;;3.50;99.90;;;;;;10286257;28;20066;-86
2022/01/30 02:06:20;;;;;;;12.63;7.03;;;3.50;99.90;;;;;;10286554;28;20027;-84
2022/01/30 02:11:35;;;;;;;11.10;4.20;;;3.40;99.90;;;;;;10285297;28;20129;-85
2022/01/30 02:27:23;;;;;;;8.87;2.90;;;3.40;99.90;;;;;;10246647;29;20040;-87
2022/01/30 02:32:24;;;;;;;10.93;2.23;;;3.50;99.90;;;;;;10277216;28;20034;-84
2022/01/30 02:37:25;;;;;;;9.77;2.87;;;3.50;99.90;;;;;;10286073;28;20049;-84
2022/01/30 02:42:30;;;;;;;9.93;3.03;;;3.60;99.90;;;;;;10285683;28;20027;-86
2022/01/30 02:47:42;;;;;;;11.70;3.40;;;3.70;99.90;;;;;;10288272;28;20030;-87
2022/01/30 02:52:44;;;;;;;16.30;2.37;;;3.70;99.90;;;;;;10292258;28;20281;-84
2022/01/30 02:57:45;;;;;;;6.60;2.10;;;3.70;99.90;;;;;;10274782;28;20459;-84
2022/01/30 03:02:45;;;;;;;12.27;3.13;;;3.80;99.90;;;;;;10292004;28;20118;-86
2022/01/30 03:07:46;;;;;;;8.57;2.40;;;3.70;99.90;;;;;;10291096;28;20093;-84
2022/01/30 03:12:46;;;;;;;13.80;3.07;;;3.80;99.90;;;;;;10291638;28;20053;-87
2022/01/30 03:17:47;;;;;;;14.27;4.73;;;3.80;99.90;;;;;;10292072;28;20046;-82
2022/01/30 03:22:47;;;;;;;10.00;2.23;;;3.80;99.90;;;;;;10291766;28;20109;-84
2022/01/30 03:27:52;;;;;;;12.33;3.10;;;3.90;99.90;;;;;;10291431;28;20081;-84
2022/01/30 03:32:53;;;;;;;15.23;4.00;;;3.90;99.90;;;;;;10291265;28;20062;-85
2022/01/30 03:37:54;;;;;;;8.67;1.93;;;4.00;99.90;;;;;;10290836;28;20093;-84
2022/01/30 03:42:54;;;;;;;14.90;2.37;;;4.10;99.90;;;;;;10290465;28;20093;-84
2022/01/30 03:47:56;;;;;;;7.93;2.43;;;4.10;99.90;;;;;;10290786;28;20165;-84
2022/01/30 03:52:56;;;;;;;9.40;2.57;;;4.10;99.90;;;;;;10273192;28;20039;-83
2022/01/30 03:57:57;;;;;;;17.77;2.83;;;4.10;99.90;;;;;;10289298;28;20111;-84
2022/01/30 04:02:58;;;;;;;17.57;2.10;;;4.10;99.90;;;;;;10271708;28;20031;-82
2022/01/30 04:08:04;;;;;;;10.17;3.20;;;4.10;99.90;;;;;;10289427;28;20059;-85
2022/01/30 04:13:04;;;;;;;10.90;1.98;;;4.10;99.90;;;;;;10289110;28;20050;-87
2022/01/30 04:18:06;;;;;;;10.83;2.53;;;3.80;99.90;;;;;;10288796;28;20442;-84
2022/01/30 04:23:07;;;;;;;6.83;2.07;;;3.60;99.90;;;;;;10288914;28;20034;-86
2022/01/30 04:28:08;;;;;;;11.47;2.23;;;3.40;99.90;;;;;;10288563;28;20031;-84
2022/01/30 04:33:09;;;;;;;21.40;7.53;;;3.30;99.90;;;;;;10288424;28;20560;-84
2022/01/30 04:38:20;;;;;;;14.87;3.03;;;3.30;99.90;;;;;;10270999;28;20042;-86
2022/01/30 05:00:05;;;;;;;13.60;3.80;;;3.60;99.90;;;;;;10287161;28;20054;-85
2022/01/30 05:10:26;;;;;;;11.40;4.10;;;3.40;99.90;;;;;;10286443;28;20066;-88
2022/01/30 05:15:28;;;;;;;13.97;3.57;;;3.40;99.90;;;;;;10269971;28;20034;-83
2022/01/30 05:20:29;;;;;;;20.10;5.33;;;3.30;99.90;;;;;;10287285;28;20031;-84
2022/01/30 05:25:30;;;;;;;14.57;3.97;;;3.40;99.90;;;;;;10286703;28;20094;-84
2022/01/30 05:30:31;;;;;;;17.23;3.67;;;3.50;99.90;;;;;;10287112;28;20038;-86
2022/01/30 05:35:32;;;;;;;14.67;3.93;;;3.50;99.90;;;;;;10285990;28;20030;-84
2022/01/30 05:40:37;;;;;;;15.13;4.47;;;3.60;99.90;;;;;;10286613;28;20511;-85
2022/01/30 05:45:43;;;;;;;14.87;5.83;;;3.70;99.90;;;;;;10268835;28;20034;-86
2022/01/30 05:50:44;;;;;;;13.57;3.10;;;3.80;99.90;;;;;;10286919;28;20487;-86
2022/01/30 05:55:45;;;;;;;16.20;4.37;;;3.80;99.90;;;;;;10286171;28;20042;-84
2022/01/30 06:00:46;;;;;;;17.37;4.63;;;3.80;99.90;;;;;;10283972;28;20027;-86
2022/01/30 06:05:47;;;;;;;11.70;4.47;;;3.90;99.90;;;;;;10272731;28;20394;-84
2022/01/30 06:10:47;;;;;;;9.97;2.83;;;3.90;99.90;;;;;;10284811;28;20627;-84
2022/01/30 06:15:48;;;;;;;9.37;3.00;;;3.90;99.90;;;;;;10286515;28;20554;-87
2022/01/30 06:20:49;;;;;;;12.73;3.23;;;4.00;99.90;;;;;;10287280;28;20038;-86
2022/01/30 06:25:50;;;;;;;13.07;3.93;;;4.00;99.90;;;;;;10293492;28;20019;-85
2022/01/30 06:30:50;;;;;;;20.00;6.63;;;3.90;99.90;;;;;;10293346;28;20039;-84
2022/01/30 06:35:51;;;;;;;15.10;4.67;;;4.00;99.90;;;;;;10292236;28;20110;-84
2022/01/30 06:40:51;;;;;;;13.97;3.90;;;4.00;99.90;;;;;;10293340;28;20046;-84
2022/01/30 06:45:52;;;;;;;20.90;5.90;;;4.00;99.90;;;;;;10293239;28;20041;-84
2022/01/30 06:50:53;;;;;;;11.87;4.00;;;4.10;99.90;;;;;;10274541;28;20103;-86
2022/01/30 06:55:53;;;;;;;17.20;6.30;;;4.00;99.90;;;;;;10292750;28;20129;-85
2022/01/30 07:00:54;;;;;;;15.80;4.80;;;4.10;99.90;;;;;;10291947;28;20035;-85
2022/01/30 07:05:54;;;;;;;18.73;5.67;;;4.10;99.90;;;;;;10291570;28;20019;-86
2022/01/30 07:10:55;;;;;;;18.67;5.33;;;4.10;99.90;;;;;;10290923;28;20082;-88
2022/01/30 07:15:55;;;;;;;13.50;3.87;;;4.10;99.90;;;;;;10291556;28;20027;-85
2022/01/30 07:20:56;;;;;;;15.73;5.63;;;4.10;99.90;;;;;;10291207;28;20376;-86
2022/01/30 07:25:57;;;;;;;14.60;4.47;;;4.10;99.90;;;;;;10290879;28;20081;-87
2022/01/30 07:30:58;;;;;;;11.57;3.70;;;4.10;99.90;;;;;;10290551;28;20517;-83
2022/01/30 07:35:59;;;;;;;23.93;7.77;;;4.10;99.90;;;;;;10289416;28;20126;-85
2022/01/30 07:41:01;;;;;;;22.23;10.77;;;4.20;99.90;;;;;;10290789;28;20122;-83
2022/01/30 07:46:04;;;;;;;28.47;9.77;;;4.10;99.90;;;;;;10289447;28;20034;-85
2022/01/30 07:51:05;;;;;;;22.77;7.10;;;4.20;99.90;;;;;;10289730;28;20027;-86
2022/01/30 07:56:07;;;;;;;16.80;6.10;;;4.20;99.90;;;;;;10271654;28;20414;-85
2022/01/30 08:01:09;;;;;;;21.07;6.27;;;4.20;99.90;;;;;;10289588;28;20086;-88
2022/01/30 08:06:10;;;;;;;30.80;9.93;;;4.20;99.90;;;;;;10249763;29;20028;-85
2022/01/30 08:11:11;;;;;;;15.33;5.17;;;4.10;99.90;;;;;;10271641;28;20042;-86
2022/01/30 08:16:12;;;;;;;25.90;8.60;;;4.10;99.90;;;;;;10289361;28;20064;-84
2022/01/30 08:21:12;;;;;;;21.67;7.70;;;4.10;99.90;;;;;;10288277;28;20074;-84
2022/01/30 08:26:13;;;;;;;29.30;10.33;;;4.10;99.90;;;;;;10288752;28;20174;-85
2022/01/30 08:31:15;;;;;;;15.40;5.00;;;4.10;99.90;;;;;;10287500;28;20442;-84
2022/01/30 08:36:16;;;;;;;26.47;9.03;;;4.10;99.90;;;;;;10287727;28;20042;-84
2022/01/30 08:41:19;;;;;;;17.80;5.87;;;4.10;99.90;;;;;;10288282;28;20633;-84
2022/01/30 08:46:21;;;;;;;17.90;6.50;;;4.20;99.90;;;;;;10287383;28;20030;-85
2022/01/30 08:51:22;;;;;;;29.23;8.03;;;4.10;99.90;;;;;;10287827;28;20407;-84
2022/01/30 08:56:24;;;;;;;35.73;11.77;;;4.10;99.90;;;;;;10287453;28;20089;-85
2022/01/30 09:01:26;;;;;;;28.17;8.03;;;4.10;99.90;;;;;;10269256;28;20058;-82
2022/01/30 09:06:27;;;;;;;29.23;9.13;;;4.10;99.90;;;;;;10286880;28;20022;-84
2022/01/30 09:11:30;;;;;;;27.10;10.53;;;4.10;99.90;;;;;;10286729;28;20542;-85
2022/01/30 09:16:31;;;;;;;39.70;10.00;;;4.10;99.90;;;;;;10286272;28;20058;-86
2022/01/30 09:21:31;;;;;;;30.00;10.37;;;4.10;99.90;;;;;;10270024;28;20463;-85
2022/01/30 09:26:32;;;;;;;21.60;5.50;;;4.20;99.90;;;;;;10285645;28;20475;-84
2022/01/30 09:31:32;;;;;;;19.20;6.63;;;4.20;99.90;;;;;;10287002;28;20064;-88
2022/01/30 09:36:33;;;;;;;12.77;4.00;;;4.40;99.90;;;;;;10287332;28;20043;-84
2022/01/30 09:41:35;;;;;;;17.63;4.40;;;4.40;99.90;;;;;;10286503;28;20089;-86
2022/01/30 09:46:39;;;;;;;15.07;5.50;;;4.50;99.90;;;;;;10285416;28;20570;-87
2022/01/30 09:51:44;;;;;;;27.23;8.80;;;4.50;99.90;;;;;;10260200;28;20509;-87
2022/01/30 09:56:45;;;;;;;19.07;5.53;;;4.70;99.90;;;;;;10279765;28;20493;-86
2022/01/30 10:01:45;;;;;;;13.17;3.60;;;4.80;99.90;;;;;;10291397;28;20037;-85
2022/01/30 10:07:02;;;;;;;11.27;4.87;;;4.70;99.90;;;;;;10294397;28;20031;-86
2022/01/30 10:12:16;;;;;;;14.37;4.73;;;4.70;99.90;;;;;;10294683;28;20383;-86
2022/01/30 10:17:29;;;;;;;14.80;5.80;;;4.50;99.90;;;;;;10276411;28;20042;-87
2022/01/30 10:22:30;;;;;;;11.70;3.80;;;4.20;99.90;;;;;;10287383;28;20031;-86
2022/01/30 10:27:33;;;;;;;12.93;2.70;;;4.00;99.90;;;;;;10293323;28;20034;-84
2022/01/30 10:32:34;;;;;;;15.23;3.73;;;3.80;99.90;;;;;;10293295;28;20040;-84
2022/01/30 10:37:39;;;;;;;12.03;3.43;;;3.20;99.90;;;;;;10292127;28;20042;-88
2022/01/30 10:42:46;;;;;;;14.03;4.07;;;2.60;99.90;;;;;;10274645;28;20038;-86
2022/01/30 10:47:46;;;;;;;19.10;5.30;;;2.10;99.90;;;;;;10268790;28;20110;-87
2022/01/30 10:52:53;;;;;;;15.57;4.60;;;1.80;99.90;;;;;;10266095;28;20676;-88
2022/01/30 10:57:59;;;;;;;12.23;2.83;;;1.80;99.90;;;;;;10282529;28;20126;-87
2022/01/30 11:03:00;;;;;;;13.43;3.67;;;1.70;99.90;;;;;;10289940;28;20027;-88
2022/01/30 11:08:00;;;;;;;23.60;8.67;;;1.90;99.90;;;;;;10292524;28;20420;-87
2022/01/30 11:13:08;;;;;;;26.10;8.77;;;2.10;99.90;;;;;;10290596;28;20125;-89
2022/01/30 11:18:11;;;;;;;47.97;17.70;;;2.30;99.90;;;;;;10291044;28;20043;-88
2022/01/30 11:23:13;;;;;;;55.50;19.63;;;2.40;99.90;;;;;;10265043;28;20738;-88
2022/01/30 11:28:15;;;;;;;22.83;8.30;;;2.50;99.90;;;;;;10291034;28;20034;-88
2022/01/30 11:33:19;;;;;;;31.33;13.20;;;2.50;99.90;;;;;;10290090;28;20391;-89
2022/01/30 11:38:20;;;;;;;21.40;7.90;;;2.60;99.90;;;;;;10274966;28;20050;-89
2022/01/30 11:43:23;;;;;;;23.13;7.63;;;2.70;99.90;;;;;;10271939;28;20022;-87
2022/01/30 11:48:24;;;;;;;18.57;5.10;;;2.80;99.90;;;;;;10272987;28;20054;-86
2022/01/30 11:53:28;;;;;;;23.07;7.03;;;2.90;99.90;;;;;;10273031;28;20493;-89
2022/01/30 11:58:46;;;;;;;18.30;4.77;;;2.90;99.90;;;;;;10263853;28;20038;-88
2022/01/30 12:03:59;;;;;;;20.73;6.90;;;2.90;99.90;;;;;;10290211;28;20037;-87
2022/01/30 12:09:15;;;;;;;21.83;5.67;;;3.00;99.90;;;;;;10289302;28;20042;-88
2022/01/30 12:14:18;;;;;;;19.85;7.38;;;3.00;99.90;;;;;;10267312;28;20047;-86
2022/01/30 12:19:31;;;;;;;17.30;4.70;;;3.00;99.90;;;;;;10280318;28;20041;-88
2022/01/30 12:24:32;;;;;;;32.63;10.97;;;3.10;99.90;;;;;;10271163;28;20448;-89
2022/01/30 12:29:47;;;;;;;26.17;9.70;;;3.20;99.90;;;;;;10285158;28;20118;-86
2022/01/30 12:34:57;;;;;;;38.83;14.37;;;3.10;99.90;;;;;;10286065;28;20034;-87
2022/01/30 12:40:13;;;;;;;30.00;10.73;;;3.10;99.90;;;;;;10287754;28;20065;-87
2022/01/30 12:45:15;;;;;;;31.13;10.37;;;3.10;99.90;;;;;;10265322;28;20030;-89
2022/01/30 12:50:17;;;;;;;28.17;6.97;;;3.00;99.90;;;;;;10278385;28;20130;-89
2022/01/30 12:55:19;;;;;;;28.13;10.77;;;2.90;99.90;;;;;;10267918;28;20023;-86
2022/01/30 13:00:38;;;;;;;30.13;7.07;;;2.90;99.90;;;;;;10267335;28;20672;-86
2022/01/30 13:05:43;;;;;;;23.40;7.10;;;2.80;99.90;;;;;;10281258;28;20033;-86
2022/01/30 13:17:54;;;;;;;;;;;2.70;99.90;;;;;;10345239;23;20087;-87
2022/01/30 13:23:27;;;;;;;30.73;7.13;;;2.60;99.90;;;;;;10267615;28;19918;-87
2022/01/30 13:28:30;;;;;;;39.70;11.13;;;2.50;99.90;;;;;;10255832;28;20042;-87
2022/01/30 13:33:30;;;;;;;30.10;9.17;;;2.40;99.90;;;;;;10283052;28;20042;-88
2022/01/30 13:38:40;;;;;;;40.00;10.70;;;2.30;99.90;;;;;;10232594;29;20399;-88
2022/01/30 13:43:41;;;;;;;25.90;8.07;;;2.30;99.90;;;;;;10246597;29;20444;-89
2022/01/30 13:48:44;;;;;;;37.63;10.43;;;2.40;99.90;;;;;;10233729;29;20031;-89
2022/01/30 13:54:24;;;;;;;35.03;12.33;;;2.40;99.90;;;;;;10246213;29;20471;-88
2022/01/30 13:59:29;;;;;;;38.40;12.20;;;2.40;99.90;;;;;;10224889;29;20487;-87
2022/01/30 14:04:31;;;;;;;44.77;16.53;;;2.40;99.90;;;;;;10240634;29;20546;-89
2022/01/30 14:09:43;;;;;;;52.17;16.77;;;2.40;99.90;;;;;;10244855;29;20023;-87
2022/01/30 14:15:02;;;;;;;43.67;13.23;;;2.40;99.90;;;;;;10230448;29;20055;-87
2022/01/30 14:20:07;;;;;;;29.67;8.63;;;2.30;99.90;;;;;;10244597;29;20071;-88
2022/01/30 14:25:12;;;;;;;35.43;10.70;;;2.30;99.90;;;;;;10226190;29;20514;-88
2022/01/30 14:31:01;;;;;;;26.63;8.23;;;2.30;99.90;;;;;;10243454;28;20138;-85
2022/01/30 14:36:04;;;;;;;31.23;6.83;;;2.40;99.90;;;;;;10221547;28;20027;-87
2022/01/30 14:41:05;;;;;;;39.07;13.80;;;2.40;99.90;;;;;;10239315;28;20046;-86
2022/01/30 14:46:15;;;;;;;38.93;10.93;;;2.40;99.90;;;;;;10249779;29;20035;-85
2022/01/30 14:51:16;;;;;;;56.23;16.70;;;2.50;99.90;;;;;;10232754;29;20060;-87
2022/01/30 14:56:27;;;;;;;112.17;35.93;;;2.50;99.90;;;;;;10243431;29;20035;-87
2022/01/30 15:01:29;;;;;;;150.90;43.20;;;2.50;99.90;;;;;;10246693;29;20035;-87
2022/01/30 15:06:29;;;;;;;58.47;17.70;;;2.50;99.90;;;;;;10249784;29;20023;-87
2022/01/30 15:11:31;;;;;;;44.80;9.73;;;2.50;99.90;;;;;;10250697;29;20066;-89
2022/01/30 15:16:43;;;;;;;43.17;11.70;;;2.50;99.90;;;;;;10224271;29;20127;-85
2022/01/30 15:21:45;;;;;;;60.30;16.93;;;2.50;99.90;;;;;;10248509;29;20143;-86
2022/01/30 15:26:46;;;;;;;50.40;14.77;;;2.50;99.90;;;;;;10250307;29;20040;-86
2022/01/30 15:31:46;;;;;;;42.13;10.90;;;2.50;99.90;;;;;;10248991;29;20031;-85
2022/01/30 15:36:48;;;;;;;30.30;11.20;;;2.50;99.90;;;;;;10248911;28;20039;-85
2022/01/30 15:41:49;;;;;;;34.30;9.40;;;2.50;99.90;;;;;;10232099;29;20059;-87
2022/01/30 15:52:09;;;;;;;52.43;17.47;;;2.50;99.90;;;;;;10249136;29;20043;-88
2022/01/30 15:57:10;;;;;;;48.40;11.80;;;2.50;99.90;;;;;;10248671;28;20544;-86
2022/01/30 16:02:29;;;;;;;60.07;18.07;;;2.60;99.90;;;;;;10246299;28;20027;-86
2022/01/30 16:07:31;;;;;;;54.40;17.97;;;2.60;99.90;;;;;;10218598;29;20399;-85
2022/01/30 16:17:40;;;;;;;38.03;11.20;;;2.70;99.90;;;;;;10240145;29;20424;-86
2022/01/30 16:22:41;;;;;;;43.50;12.27;;;2.80;99.90;;;;;;10241082;29;20044;-85
2022/01/30 16:27:43;;;;;;;40.90;12.13;;;2.80;99.90;;;;;;10247370;29;20034;-86
2022/01/30 16:32:44;;;;;;;29.80;9.43;;;2.80;99.90;;;;;;10247591;29;20036;-86
2022/01/30 16:37:46;;;;;;;38.87;11.13;;;2.80;99.90;;;;;;10247397;28;20511;-86
2022/01/30 16:42:47;;;;;;;38.83;11.83;;;2.90;99.90;;;;;;10248736;29;20031;-87
2022/01/30 16:47:59;;;;;;;29.27;8.63;;;2.90;99.90;;;;;;10245796;28;20102;-86
2022/01/30 16:53:01;;;;;;;37.40;10.30;;;3.00;99.90;;;;;;10245745;29;20125;-86
2022/01/30 16:58:01;;;;;;;59.30;20.17;;;3.00;99.90;;;;;;10247550;29;20047;-86
2022/01/30 17:03:03;;;;;;;33.97;8.43;;;2.90;99.90;;;;;;10246331;29;20031;-84
2022/01/30 17:08:03;;;;;;;52.23;15.77;;;2.90;99.90;;;;;;10246768;28;20534;-82
2022/01/30 17:13:05;;;;;;;55.57;18.23;;;2.90;99.90;;;;;;10246266;29;20039;-83
2022/01/30 17:18:10;;;;;;;45.13;11.37;;;2.90;99.90;;;;;;10244453;29;20087;-82
2022/01/30 17:23:13;;;;;;;44.28;11.98;;;2.80;99.90;;;;;;10244608;29;20027;-81
2022/01/30 17:28:14;;;;;;;54.40;15.53;;;2.80;99.90;;;;;;10244632;28;20026;-85
2022/01/30 17:33:15;;;;;;;58.80;15.03;;;2.70;99.90;;;;;;10243019;29;20384;-84
2022/01/30 17:38:15;;;;;;;53.07;14.67;;;2.70;99.90;;;;;;10244535;28;20035;-85
2022/01/30 17:43:16;;;;;;;42.07;9.77;;;2.70;99.90;;;;;;10245250;29;20038;-85
2022/01/30 17:48:17;;;;;;;63.43;20.23;;;2.70;99.90;;;;;;10227106;29;20038;-86
2022/01/30 17:53:18;;;;;;;32.97;8.17;;;2.70;99.90;;;;;;10255800;28;20438;-85
2022/01/30 17:58:18;;;;;;;83.93;23.77;;;2.80;99.90;;;;;;10245223;29;20031;-85
2022/01/30 18:03:22;;;;;;;54.10;16.13;;;2.80;99.90;;;;;;10222429;29;20027;-85
2022/01/30 18:08:23;;;;;;;62.80;18.37;;;2.80;99.90;;;;;;10224215;29;20541;-85
2022/01/30 18:13:25;;;;;;;47.40;11.77;;;2.80;99.90;;;;;;10244116;29;20046;-85
2022/01/30 18:18:26;;;;;;;36.63;8.80;;;2.80;99.90;;;;;;10197837;28;1460040;-86
2022/01/30 18:23:26;;;;;;;56.40;15.20;;;2.80;99.90;;;;;;10254069;29;20031;-89
2022/01/30 18:28:27;;;;;;;37.03;9.60;;;2.80;99.90;;;;;;10254007;28;20118;-87
2022/01/30 18:33:28;;;;;;;33.13;9.07;;;2.80;99.90;;;;;;10248864;29;20037;-90
2022/01/30 18:43:34;;;;;;;39.37;9.80;;;2.80;99.90;;;;;;10252505;29;20062;-89
2022/01/30 18:48:40;;;;;;;37.13;11.23;;;2.80;99.90;;;;;;10251335;29;20039;-88
2022/01/30 18:53:41;;;;;;;56.08;12.75;;;2.80;99.90;;;;;;10247155;29;20032;-86
2022/01/30 18:58:42;;;;;;;45.83;11.13;;;2.80;99.90;;;;;;10251851;29;20051;-86
2022/01/30 19:03:42;;;;;;;37.73;9.53;;;2.70;99.90;;;;;;10250763;29;20031;-85
2022/01/30 19:08:44;;;;;;;38.37;8.83;;;2.80;99.90;;;;;;10251943;29;20431;-86
2022/01/30 19:13:45;;;;;;;41.87;11.77;;;2.80;99.90;;;;;;10250954;29;20042;-86
2022/01/30 19:18:46;;;;;;;29.17;9.57;;;2.80;99.90;;;;;;10249956;29;20062;-85
2022/01/30 19:23:47;;;;;;;41.50;10.47;;;2.80;99.90;;;;;;10234685;29;20502;-85
2022/01/30 19:28:48;;;;;;;41.27;12.13;;;2.80;99.90;;;;;;10242431;28;20514;-88
2022/01/30 19:33:49;;;;;;;34.90;8.00;;;2.90;99.90;;;;;;10249138;29;20058;-89
2022/01/30 19:38:50;;;;;;;45.83;10.40;;;2.90;99.90;;;;;;10232650;29;20028;-86
2022/01/30 19:43:51;;;;;;;38.53;11.23;;;2.90;99.90;;;;;;10248956;29;20035;-85
2022/01/30 19:48:51;;;;;;;40.90;12.10;;;2.90;99.90;;;;;;10249567;29;20356;-86
2022/01/30 19:53:55;;;;;;;48.03;11.23;;;2.80;99.90;;;;;;10249874;29;20499;-88
2022/01/30 19:58:56;;;;;;;28.53;7.97;;;2.80;99.90;;;;;;10249055;29;20126;-85
2022/01/30 20:03:56;;;;;;;44.70;11.30;;;2.70;99.90;;;;;;10247954;29;20390;-87
2022/01/30 20:08:57;;;;;;;46.53;11.23;;;2.60;99.90;;;;;;10249012;29;20035;-85
2022/01/30 20:13:57;;;;;;;43.97;14.27;;;2.60;99.90;;;;;;10249641;29;20031;-86
2022/01/30 20:18:59;;;;;;;40.97;10.77;;;2.60;99.90;;;;;;10248218;29;20051;-87
2022/01/30 20:23:59;;;;;;;57.70;14.97;;;2.60;99.90;;;;;;10231503;29;20396;-88
2022/01/30 20:29:00;;;;;;;38.97;7.70;;;2.70;99.90;;;;;;10243573;29;20039;-86
2022/01/30 20:34:01;;;;;;;31.30;8.70;;;2.70;99.90;;;;;;10230705;29;20097;-86
2022/01/30 20:39:04;;;;;;;25.73;7.20;;;2.70;99.90;;;;;;10248261;28;20094;-88
2022/01/30 20:44:05;;;;;;;41.30;9.00;;;2.70;99.90;;;;;;10248199;29;20062;-86
2022/01/30 20:49:06;;;;;;;41.53;10.00;;;2.70;99.90;;;;;;10246600;29;20708;-87
2022/01/30 20:54:08;;;;;;;33.73;8.47;;;2.60;99.90;;;;;;10242022;29;20038;-86
2022/01/30 20:59:09;;;;;;;25.63;7.37;;;2.60;99.90;;;;;;10247847;29;20403;-86
2022/01/30 21:04:09;;;;;;;29.43;7.03;;;2.50;99.90;;;;;;10229331;29;20038;-86
2022/01/30 21:09:10;;;;;;;43.27;9.77;;;2.50;99.90;;;;;;10247545;29;20166;-85
2022/01/30 21:14:12;;;;;;;29.77;7.47;;;2.40;99.90;;;;;;10247920;29;20046;-86
2022/01/30 21:19:15;;;;;;;30.27;6.40;;;2.40;99.90;;;;;;10245067;29;20059;-85
2022/01/30 21:24:16;;;;;;;32.60;8.00;;;2.40;99.90;;;;;;10246544;29;20027;-87
2022/01/30 21:29:17;;;;;;;30.77;7.03;;;2.40;99.90;;;;;;10245482;29;20039;-87
2022/01/30 21:34:18;;;;;;;33.07;7.97;;;2.50;99.90;;;;;;10245030;29;20128;-87
2022/01/30 21:39:19;;;;;;;32.40;7.57;;;2.40;99.90;;;;;;10245625;28;20469;-87
2022/01/30 21:44:20;;;;;;;29.53;7.00;;;2.40;99.90;;;;;;10246342;29;20114;-87
2022/01/30 21:49:20;;;;;;;27.37;5.20;;;2.50;99.90;;;;;;10245646;29;20495;-86
2022/01/30 21:54:21;;;;;;;22.63;4.43;;;2.50;99.90;;;;;;10251604;28;20376;-86
2022/01/30 21:59:22;;;;;;;27.67;5.50;;;2.50;99.90;;;;;;10253998;29;20436;-87
2022/01/30 22:04:23;;;;;;;22.20;5.57;;;2.50;99.90;;;;;;10253849;29;20118;-88
2022/01/30 22:09:24;;;;;;;26.13;5.03;;;2.50;99.90;;;;;;10251457;29;20029;-85
2022/01/30 22:14:27;;;;;;;32.10;7.43;;;2.40;99.90;;;;;;10253585;29;20035;-86
2022/01/30 22:19:28;;;;;;;28.73;6.47;;;2.40;99.90;;;;;;10250841;29;20475;-87
2022/01/30 22:24:28;;;;;;;20.87;5.37;;;2.40;99.90;;;;;;10253375;29;20059;-85
2022/01/30 22:29:29;;;;;;;34.43;8.93;;;2.40;99.90;;;;;;10253322;29;20428;-87
2022/01/30 22:34:29;;;;;;;48.77;10.93;;;2.40;99.90;;;;;;10251821;28;20039;-86
2022/01/30 22:39:31;;;;;;;33.40;8.80;;;2.40;99.90;;;;;;10253275;29;20146;-88
2022/01/30 22:44:32;;;;;;;24.33;5.50;;;2.30;99.90;;;;;;10252857;29;20105;-86
2022/01/30 22:49:33;;;;;;;26.90;6.40;;;2.30;99.90;;;;;;10252094;29;20566;-87
2022/01/30 22:54:33;;;;;;;26.97;7.30;;;2.30;99.90;;;;;;10252434;29;20031;-87
2022/01/30 22:59:34;;;;;;;36.90;8.70;;;2.30;99.90;;;;;;10250614;29;20098;-87
2022/01/30 23:04:35;;;;;;;55.50;13.13;;;2.30;99.90;;;;;;10244522;29;20101;-86
2022/01/30 23:09:35;;;;;;;34.03;7.70;;;2.20;99.90;;;;;;10252183;29;20487;-87
2022/01/30 23:14:36;;;;;;;31.57;7.60;;;2.20;99.90;;;;;;10250699;29;20502;-86
2022/01/30 23:19:36;;;;;;;29.70;7.43;;;2.20;99.90;;;;;;10250965;29;20105;-86
2022/01/30 23:24:37;;;;;;;36.20;8.50;;;2.10;99.90;;;;;;10251523;29;20035;-86
2022/01/30 23:29:38;;;;;;;35.63;9.17;;;2.10;99.90;;;;;;10250279;29;20039;-85
2022/01/30 23:34:42;;;;;;;35.93;9.43;;;2.10;99.90;;;;;;10250991;28;20034;-86
2022/01/30 23:39:42;;;;;;;37.13;8.00;;;2.10;99.90;;;;;;10250235;29;20039;-87
2022/01/30 23:44:44;;;;;;;28.37;6.90;;;2.00;99.90;;;;;;10251095;29;20177;-87
2022/01/30 23:49:44;;;;;;;33.73;8.43;;;2.00;99.90;;;;;;10233057;29;20479;-86
2022/01/30 23:54:45;;;;;;;31.20;7.83;;;2.00;99.90;;;;;;10250790;29;20039;-87
2022/01/30 23:59:46;;;;;;;31.37;7.70;;;2.00;99.90;;;;;;10249513;29;20047;-86
